Time;durP1;ratioP1;P1;durP2;ratioP2;P2;SDS_P1;SDS_P2;PMS_P1;PMS_P2;Temp;Humidity;BMP_temperature;BMP_pressure;BME280_temperature;BME280_humidity;BME280_pressure;Samples;Min_cycle;Max_cycle;Signal;HPM_P1;HPM_P2
2023/09/01 00:01:49;;;;;;;5.82;2.42;;;12.70;99.90;;;;;;5112599;28;20702;-72
2023/09/01 00:04:35;;;;;;;7.35;2.90;;;12.60;99.90;;;;;;5111225;28;20148;-77
2023/09/01 00:07:21;;;;;;;8.57;3.50;;;12.60;99.90;;;;;;5114822;27;20047;-77
2023/09/01 00:10:07;;;;;;;6.85;3.30;;;12.60;99.90;;;;;;5113266;28;20051;-75
2023/09/01 00:12:56;;;;;;;5.28;2.58;;;12.50;99.90;;;;;;5113535;28;20059;-71
2023/09/01 00:15:42;;;;;;;5.75;3.10;;;12.50;99.90;;;;;;5112976;28;20056;-71
2023/09/01 00:18:30;;;;;;;7.10;3.40;;;12.50;99.90;;;;;;5098428;28;20048;-73
2023/09/01 00:21:16;;;;;;;6.85;2.42;;;12.50;99.90;;;;;;5111801;28;20517;-70
2023/09/01 00:24:03;;;;;;;7.22;2.75;;;12.40;99.90;;;;;;5110609;28;20596;-71
2023/09/01 00:26:49;;;;;;;9.85;3.08;;;12.50;99.90;;;;;;5111251;28;20043;-74
2023/09/01 00:29:36;;;;;;;8.20;3.15;;;12.50;99.90;;;;;;5114231;28;20066;-70
2023/09/01 00:32:22;;;;;;;6.82;2.60;;;12.40;99.90;;;;;;5113400;28;20059;-75
2023/09/01 00:35:10;;;;;;;8.95;3.08;;;12.40;99.90;;;;;;5114755;28;20047;-73
2023/09/01 00:37:56;;;;;;;7.18;3.13;;;12.40;99.90;;;;;;5115928;28;20044;-78
2023/09/01 00:40:42;;;;;;;10.77;3.35;;;12.40;99.90;;;;;;5115637;28;20087;-75
2023/09/01 00:43:28;;;;;;;8.18;3.72;;;12.40;99.90;;;;;;5122922;28;20534;-83
2023/09/01 00:46:14;;;;;;;8.45;3.22;;;12.40;99.90;;;;;;5124489;28;20051;-85
2023/09/01 00:49:00;;;;;;;9.35;3.83;;;12.40;99.90;;;;;;5111841;28;20098;-84
2023/09/01 00:51:47;;;;;;;9.50;3.40;;;12.40;99.90;;;;;;5112806;28;20083;-83
2023/09/01 00:54:34;;;;;;;8.45;3.33;;;12.40;99.90;;;;;;5113611;28;20116;-76
2023/09/01 00:57:20;;;;;;;8.63;3.60;;;12.30;99.90;;;;;;5112376;28;20051;-81
2023/09/01 01:00:07;;;;;;;9.45;3.58;;;12.40;99.90;;;;;;5112653;28;20052;-74
2023/09/01 01:02:54;;;;;;;7.82;2.83;;;12.30;99.90;;;;;;5112006;28;20051;-72
2023/09/01 01:05:50;;;;;;;5.85;2.63;;;12.30;99.90;;;;;;5111463;28;20047;-70
2023/09/01 01:09:00;;;;;;;9.82;2.85;;;12.30;99.90;;;;;;5110725;28;20129;-78
2023/09/01 01:11:52;;;;;;;7.38;2.88;;;12.30;99.90;;;;;;5111868;28;20086;-73
2023/09/01 01:14:50;;;;;;;7.97;3.03;;;12.30;99.90;;;;;;5110940;28;20091;-75
2023/09/01 01:17:39;;;;;;;7.45;3.33;;;12.20;99.90;;;;;;5112580;28;20050;-76
2023/09/01 01:20:31;;;;;;;5.55;3.35;;;12.20;99.90;;;;;;5113402;28;20087;-73
2023/09/01 01:23:19;;;;;;;7.68;3.58;;;12.20;99.90;;;;;;5112439;28;20052;-74
2023/09/01 01:26:08;;;;;;;5.32;2.35;;;12.20;99.90;;;;;;5111134;28;20055;-78
2023/09/01 01:28:54;;;;;;;10.07;3.10;;;12.20;99.90;;;;;;5110876;28;20194;-78
2023/09/01 01:31:40;;;;;;;6.25;2.75;;;12.20;99.90;;;;;;5111599;28;20130;-75
2023/09/01 01:34:33;;;;;;;6.25;2.50;;;12.10;99.90;;;;;;5113290;28;20108;-74
2023/09/01 01:37:30;;;;;;;6.32;2.95;;;12.10;99.90;;;;;;5114666;28;20115;-76
2023/09/01 01:40:20;;;;;;;5.47;2.70;;;12.00;99.90;;;;;;5109332;28;20047;-76
2023/09/01 01:43:09;;;;;;;6.60;2.50;;;12.00;99.90;;;;;;5111502;28;20483;-77
2023/09/01 01:45:56;;;;;;;6.90;2.65;;;12.00;99.90;;;;;;5111875;28;20044;-75
2023/09/01 01:48:42;;;;;;;6.90;2.90;;;11.90;99.90;;;;;;5110346;28;20059;-73
2023/09/01 01:51:29;;;;;;;4.55;2.42;;;11.90;99.90;;;;;;5111435;28;20075;-74
2023/09/01 01:54:15;;;;;;;5.15;2.58;;;11.90;99.90;;;;;;5110850;28;20062;-73
2023/09/01 01:57:01;;;;;;;4.47;2.45;;;11.80;99.90;;;;;;5111235;28;20138;-79
2023/09/01 01:59:47;;;;;;;4.57;2.20;;;11.80;99.90;;;;;;5110839;28;20059;-74
2023/09/01 02:02:33;;;;;;;6.35;2.55;;;11.80;99.90;;;;;;5110658;28;20568;-80
2023/09/01 02:05:20;;;;;;;4.95;2.25;;;11.70;99.90;;;;;;5109873;28;20120;-78
2023/09/01 02:08:06;;;;;;;9.20;2.78;;;11.70;99.90;;;;;;5111231;28;20053;-73
2023/09/01 02:10:52;;;;;;;6.50;2.42;;;11.60;99.90;;;;;;5110922;28;20084;-72
2023/09/01 02:13:38;;;;;;;8.38;2.42;;;11.60;99.90;;;;;;5113471;28;20063;-76
2023/09/01 02:16:24;;;;;;;5.55;2.63;;;11.60;99.90;;;;;;5111016;28;20071;-72
2023/09/01 02:19:11;;;;;;;6.28;2.35;;;11.60;99.90;;;;;;5110214;28;20491;-74
2023/09/01 02:21:57;;;;;;;6.95;2.35;;;11.60;99.90;;;;;;5109428;28;20055;-74
2023/09/01 02:24:43;;;;;;;6.25;2.60;;;11.60;99.90;;;;;;5110962;28;20146;-76
2023/09/01 02:27:29;;;;;;;9.25;2.53;;;11.50;99.90;;;;;;5111837;28;20043;-79
2023/09/01 02:30:15;;;;;;;8.35;3.55;;;11.60;99.90;;;;;;5110580;28;20044;-70
2023/09/01 02:33:02;;;;;;;4.53;2.53;;;11.50;99.90;;;;;;5109277;28;20388;-77
2023/09/01 02:35:48;;;;;;;7.32;3.38;;;11.50;99.90;;;;;;5110621;28;20051;-70
2023/09/01 02:38:34;;;;;;;6.40;2.75;;;11.50;99.90;;;;;;5111078;28;20055;-72
2023/09/01 02:41:21;;;;;;;5.57;2.70;;;11.50;99.90;;;;;;5108993;28;20055;-72
2023/09/01 02:44:07;;;;;;;8.48;3.83;;;11.50;99.90;;;;;;5110325;28;20055;-75
2023/09/01 02:46:53;;;;;;;7.70;2.88;;;11.40;99.90;;;;;;5108794;28;20050;-72
2023/09/01 02:49:39;;;;;;;6.68;3.20;;;11.40;99.90;;;;;;5108536;28;20688;-69
2023/09/01 02:52:25;;;;;;;6.93;3.30;;;11.40;99.90;;;;;;5109930;28;20051;-70
2023/09/01 02:55:12;;;;;;;5.93;2.55;;;11.40;99.90;;;;;;5109215;28;20493;-71
2023/09/01 02:57:58;;;;;;;10.05;3.72;;;11.40;99.90;;;;;;5095577;28;20074;-72
2023/09/01 03:00:45;;;;;;;7.78;3.60;;;11.30;99.90;;;;;;5111918;28;20055;-75
2023/09/01 03:03:31;;;;;;;6.93;2.85;;;11.30;99.90;;;;;;5112154;28;20066;-73
2023/09/01 03:06:17;;;;;;;5.13;3.03;;;11.30;99.90;;;;;;5109941;28;20086;-72
2023/09/01 03:09:04;;;;;;;7.25;3.30;;;11.30;99.90;;;;;;5110517;28;20059;-72
2023/09/01 03:11:50;;;;;;;6.93;2.83;;;11.30;99.90;;;;;;5109281;28;20056;-73
2023/09/01 03:14:36;;;;;;;7.28;2.60;;;11.30;99.90;;;;;;5109867;28;20097;-78
2023/09/01 03:17:22;;;;;;;8.52;3.53;;;11.30;99.90;;;;;;5110146;28;20075;-81
2023/09/01 03:20:10;;;;;;;5.28;2.65;;;11.20;99.90;;;;;;5109500;28;20050;-77
2023/09/01 03:22:56;;;;;;;8.00;3.22;;;11.20;99.90;;;;;;5113458;28;20063;-76
2023/09/01 03:25:42;;;;;;;6.50;2.78;;;11.20;99.90;;;;;;5110090;28;20127;-73
2023/09/01 03:28:28;;;;;;;6.68;3.30;;;11.20;99.90;;;;;;5108879;28;20051;-71
2023/09/01 03:31:14;;;;;;;7.85;3.80;;;11.10;99.90;;;;;;5110210;28;20078;-75
2023/09/01 03:34:00;;;;;;;9.07;2.95;;;11.20;99.90;;;;;;5111183;28;20058;-72
2023/09/01 03:36:47;;;;;;;12.52;3.92;;;11.10;99.90;;;;;;5108753;28;20085;-70
2023/09/01 03:39:33;;;;;;;6.28;3.30;;;11.20;99.90;;;;;;5109087;28;20047;-80
2023/09/01 03:42:19;;;;;;;6.93;3.38;;;11.20;99.90;;;;;;5112604;28;20044;-72
2023/09/01 03:45:05;;;;;;;9.23;3.28;;;11.10;99.90;;;;;;5110497;28;20062;-75
2023/09/01 03:47:51;;;;;;;12.05;4.47;;;11.20;99.90;;;;;;5109281;28;20043;-73
2023/09/01 03:50:37;;;;;;;12.63;5.45;;;11.20;99.90;;;;;;5110349;28;20060;-73
2023/09/01 03:53:23;;;;;;;6.03;3.40;;;11.20;99.90;;;;;;5095545;28;20051;-72
2023/09/01 03:56:13;;;;;;;7.00;3.30;;;11.10;99.90;;;;;;5108845;28;20486;-71
2023/09/01 03:58:59;;;;;;;7.72;3.20;;;11.20;99.90;;;;;;5108062;28;20441;-71
2023/09/01 04:01:46;;;;;;;6.60;3.22;;;11.10;99.90;;;;;;5108969;28;20740;-72
2023/09/01 04:04:33;;;;;;;7.55;3.35;;;11.10;99.90;;;;;;5113813;28;20063;-76
2023/09/01 04:07:19;;;;;;;5.80;3.20;;;11.10;99.90;;;;;;5113256;28;20487;-70
2023/09/01 04:10:06;;;;;;;7.07;3.00;;;11.10;99.90;;;;;;5112483;28;20050;-70
2023/09/01 04:12:52;;;;;;;8.02;3.58;;;11.10;99.90;;;;;;5112100;28;20098;-71
2023/09/01 04:15:39;;;;;;;7.22;3.40;;;11.10;99.90;;;;;;5112706;28;20051;-73
2023/09/01 04:18:25;;;;;;;10.20;3.85;;;11.10;99.90;;;;;;5113196;28;20043;-74
2023/09/01 04:21:11;;;;;;;9.60;4.18;;;11.20;99.90;;;;;;5112872;28;20051;-72
2023/09/01 04:23:58;;;;;;;9.88;3.72;;;11.20;99.90;;;;;;5113001;28;20564;-76
2023/09/01 04:26:44;;;;;;;7.03;3.50;;;11.20;99.90;;;;;;5113748;28;20139;-74
2023/09/01 04:29:31;;;;;;;7.35;3.53;;;11.20;99.90;;;;;;5114696;28;20043;-77
2023/09/01 04:32:17;;;;;;;6.68;3.00;;;11.10;99.90;;;;;;5113171;28;20048;-77
2023/09/01 04:35:04;;;;;;;9.75;3.88;;;11.10;99.90;;;;;;5111314;28;20062;-74
2023/09/01 04:37:51;;;;;;;9.68;2.78;;;11.10;99.90;;;;;;5111524;28;20052;-73
2023/09/01 04:40:37;;;;;;;7.97;3.28;;;11.10;99.90;;;;;;5112744;28;20056;-71
2023/09/01 04:43:25;;;;;;;10.00;3.38;;;11.10;99.90;;;;;;5111838;28;20383;-75
2023/09/01 04:46:11;;;;;;;10.98;4.10;;;11.10;99.90;;;;;;5113311;28;20464;-72
2023/09/01 04:48:57;;;;;;;8.18;3.08;;;11.10;99.90;;;;;;5097292;28;20139;-73
2023/09/01 04:51:44;;;;;;;6.65;3.30;;;11.10;99.90;;;;;;5112300;28;20506;-76
2023/09/01 04:54:30;;;;;;;6.80;3.08;;;11.10;99.90;;;;;;5111996;28;20056;-75
2023/09/01 04:57:16;;;;;;;7.78;3.55;;;11.10;99.90;;;;;;5110302;28;20056;-77
2023/09/01 05:00:04;;;;;;;8.07;3.67;;;11.10;99.90;;;;;;5111796;28;20062;-79
2023/09/01 05:02:50;;;;;;;7.05;2.67;;;11.10;99.90;;;;;;5112622;28;20074;-74
2023/09/01 05:05:36;;;;;;;5.72;2.90;;;11.00;99.90;;;;;;5110407;28;20085;-77
2023/09/01 05:08:22;;;;;;;9.90;3.30;;;11.00;99.90;;;;;;5113019;28;20051;-73
2023/09/01 05:11:09;;;;;;;9.52;3.53;;;11.00;99.90;;;;;;5111482;28;20051;-70
2023/09/01 05:13:55;;;;;;;7.10;3.35;;;11.00;99.90;;;;;;5110809;28;20049;-74
2023/09/01 05:16:41;;;;;;;6.20;3.78;;;11.10;99.90;;;;;;5112004;28;20108;-77
2023/09/01 05:19:27;;;;;;;7.28;4.28;;;11.10;99.90;;;;;;5111246;28;20130;-75
2023/09/01 05:22:13;;;;;;;8.85;3.92;;;11.20;99.90;;;;;;5110543;28;20510;-75
2023/09/01 05:25:00;;;;;;;9.60;4.40;;;11.20;99.90;;;;;;5111909;28;20047;-73
2023/09/01 05:27:46;;;;;;;11.02;3.40;;;11.10;99.90;;;;;;5111928;28;20494;-75
2023/09/01 05:30:32;;;;;;;8.52;3.30;;;11.20;99.90;;;;;;5111795;28;20052;-75
2023/09/01 05:33:18;;;;;;;6.35;3.50;;;11.20;99.90;;;;;;5110336;28;20047;-74
2023/09/01 05:36:05;;;;;;;8.70;3.50;;;11.20;99.90;;;;;;5110422;28;20138;-74
2023/09/01 05:38:51;;;;;;;6.85;3.20;;;11.30;99.90;;;;;;5111830;28;20403;-74
2023/09/01 05:41:37;;;;;;;13.20;3.85;;;11.40;99.90;;;;;;5111864;28;20043;-72
2023/09/01 05:44:23;;;;;;;5.30;3.15;;;11.50;99.90;;;;;;5111728;28;20135;-81
2023/09/01 05:47:09;;;;;;;5.57;3.20;;;11.60;99.90;;;;;;5110706;28;20090;-72
2023/09/01 05:49:55;;;;;;;8.40;3.83;;;11.70;99.90;;;;;;5110368;28;20130;-73
2023/09/01 05:52:41;;;;;;;9.13;2.75;;;11.80;99.90;;;;;;5109998;28;20051;-73
2023/09/01 05:55:29;;;;;;;8.07;4.20;;;11.90;99.90;;;;;;5110163;28;20052;-73
2023/09/01 05:58:15;;;;;;;10.05;3.90;;;12.00;99.90;;;;;;5110247;28;20496;-73
2023/09/01 06:01:01;;;;;;;11.00;3.97;;;12.10;99.90;;;;;;5111063;28;20059;-78
2023/09/01 06:03:48;;;;;;;4.97;2.65;;;12.20;99.90;;;;;;5110591;28;20142;-78
2023/09/01 06:06:35;;;;;;;7.15;3.35;;;12.30;99.90;;;;;;5109818;28;20837;-74
2023/09/01 06:09:21;;;;;;;6.10;3.25;;;12.30;99.90;;;;;;5109899;28;20055;-79
2023/09/01 06:12:07;;;;;;;7.90;3.67;;;12.40;99.90;;;;;;5110121;28;20503;-76
2023/09/01 06:14:53;;;;;;;6.82;2.97;;;12.50;99.90;;;;;;5109227;28;20063;-76
2023/09/01 06:17:40;;;;;;;5.35;3.00;;;12.60;99.90;;;;;;5109578;28;20083;-80
2023/09/01 06:20:26;;;;;;;6.03;2.97;;;12.70;99.90;;;;;;5110884;28;20043;-72
2023/09/01 06:23:12;;;;;;;5.88;2.90;;;12.70;99.90;;;;;;5111634;28;20146;-73
2023/09/01 06:25:58;;;;;;;7.60;3.17;;;12.80;99.90;;;;;;5108863;28;20101;-76
2023/09/01 06:28:46;;;;;;;6.78;2.85;;;12.90;99.90;;;;;;5111228;28;20078;-73
2023/09/01 06:31:32;;;;;;;6.18;3.15;;;13.00;99.90;;;;;;5112231;28;20059;-72
2023/09/01 06:34:20;;;;;;;13.85;3.70;;;13.10;99.90;;;;;;5110300;28;20138;-74
2023/09/01 06:37:06;;;;;;;7.20;3.28;;;13.30;99.90;;;;;;5109588;28;20055;-74
2023/09/01 06:39:53;;;;;;;8.77;2.90;;;13.50;99.90;;;;;;5111449;28;20051;-81
2023/09/01 06:42:39;;;;;;;8.95;3.13;;;13.60;99.90;;;;;;5109380;28;20131;-84
2023/09/01 06:45:25;;;;;;;9.43;3.65;;;13.70;99.90;;;;;;5109040;28;20054;-84
2023/09/01 06:48:11;;;;;;;8.38;2.67;;;13.80;99.90;;;;;;5110651;28;20121;-80
2023/09/01 06:51:01;;;;;;;4.63;2.58;;;14.00;99.90;;;;;;5108374;28;20062;-82
2023/09/01 06:53:47;;;;;;;8.90;2.97;;;14.20;99.90;;;;;;5109415;28;20051;-83
2023/09/01 06:56:34;;;;;;;7.70;2.67;;;14.20;99.90;;;;;;5110629;28;20055;-83
2023/09/01 06:59:20;;;;;;;6.22;2.25;;;14.30;99.90;;;;;;5108770;28;20483;-81
2023/09/01 07:02:06;;;;;;;7.20;2.05;;;14.40;99.90;;;;;;5109359;28;20051;-84
2023/09/01 07:04:52;;;;;;;10.00;2.47;;;14.60;99.90;;;;;;5109988;28;20086;-71
2023/09/01 07:07:38;;;;;;;6.63;2.10;;;14.70;99.90;;;;;;5109665;28;20048;-82
2023/09/01 07:10:24;;;;;;;5.15;2.38;;;14.80;99.90;;;;;;5109322;28;20051;-84
2023/09/01 07:13:10;;;;;;;7.85;2.90;;;14.90;99.90;;;;;;5109528;28;20055;-83
2023/09/01 07:15:57;;;;;;;7.97;2.40;;;15.00;99.90;;;;;;5107934;28;20047;-80
2023/09/01 07:18:43;;;;;;;6.32;2.55;;;15.20;99.90;;;;;;5109402;28;20046;-75
2023/09/01 07:21:29;;;;;;;6.25;1.85;;;15.30;99.90;;;;;;5110398;28;20063;-82
2023/09/01 07:24:16;;;;;;;6.45;2.50;;;15.60;99.90;;;;;;5109333;28;20060;-76
2023/09/01 07:27:03;;;;;;;4.90;2.20;;;15.80;99.90;;;;;;5109879;28;20091;-72
2023/09/01 07:29:49;;;;;;;5.22;1.92;;;16.00;99.90;;;;;;5112212;28;20083;-71
2023/09/01 07:32:35;;;;;;;7.10;2.70;;;16.10;99.90;;;;;;5110175;28;20094;-76
2023/09/01 07:35:22;;;;;;;6.80;1.92;;;16.40;99.90;;;;;;5111245;28;20059;-72
2023/09/01 07:38:08;;;;;;;4.10;1.63;;;16.50;99.90;;;;;;5110939;28;20052;-75
2023/09/01 07:40:54;;;;;;;4.93;1.65;;;16.60;99.90;;;;;;5112646;28;20050;-77
2023/09/01 07:43:40;;;;;;;4.57;1.60;;;16.80;99.90;;;;;;5113649;28;20039;-74
2023/09/01 07:46:27;;;;;;;3.20;1.40;;;17.00;99.90;;;;;;5113517;28;20061;-78
2023/09/01 07:49:13;;;;;;;5.35;2.10;;;17.20;99.90;;;;;;5114912;28;20051;-70
2023/09/01 07:51:59;;;;;;;4.38;1.40;;;17.40;99.90;;;;;;5113122;28;20060;-72
2023/09/01 07:54:46;;;;;;;5.10;1.23;;;17.60;99.90;;;;;;5112572;28;20048;-75
2023/09/01 07:57:32;;;;;;;7.45;1.33;;;17.80;99.90;;;;;;5112317;28;20055;-82
2023/09/01 08:00:18;;;;;;;4.18;1.25;;;18.00;99.90;;;;;;5113357;28;20056;-73
2023/09/01 08:03:10;;;;;;;9.40;1.85;;;18.10;99.90;;;;;;5113039;28;20051;-81
2023/09/01 08:05:58;;;;;;;4.25;1.23;;;18.30;99.90;;;;;;5113905;28;20056;-73
2023/09/01 08:08:44;;;;;;;6.13;1.50;;;18.50;99.90;;;;;;5113742;28;20067;-76
2023/09/01 08:11:31;;;;;;;4.50;0.93;;;18.50;99.90;;;;;;5112669;28;20059;-76
2023/09/01 08:14:17;;;;;;;6.95;1.10;;;18.50;99.90;;;;;;5098735;28;20387;-84
2023/09/01 08:17:03;;;;;;;3.38;1.05;;;18.60;99.90;;;;;;5112250;28;20075;-82
2023/09/01 08:19:49;;;;;;;2.58;1.08;;;18.70;99.90;;;;;;5113295;28;20707;-82
2023/09/01 08:22:36;;;;;;;4.15;0.90;;;18.80;99.90;;;;;;5113518;28;20567;-81
2023/09/01 08:25:22;;;;;;;5.57;1.27;;;18.80;99.90;;;;;;5113270;28;20043;-76
2023/09/01 08:28:08;;;;;;;5.93;1.15;;;18.80;99.90;;;;;;5111906;28;20055;-78
2023/09/01 08:31:00;;;;;;;8.52;1.40;;;18.80;99.90;;;;;;5111197;28;20846;-79
2023/09/01 08:33:46;;;;;;;2.35;1.08;;;18.70;99.90;;;;;;5098621;28;20047;-77
2023/09/01 08:36:32;;;;;;;3.45;0.80;;;18.70;99.90;;;;;;5112928;28;20056;-73
2023/09/01 08:39:19;;;;;;;2.90;0.88;;;18.90;99.90;;;;;;5113094;28;20055;-72
2023/09/01 08:42:05;;;;;;;2.88;1.17;;;19.00;99.90;;;;;;5112566;28;20082;-73
2023/09/01 08:44:52;;;;;;;4.45;1.15;;;19.30;99.90;;;;;;5113635;28;20112;-74
2023/09/01 08:47:45;;;;;;;6.13;1.05;;;19.30;99.90;;;;;;5113640;28;20122;-79
2023/09/01 08:50:31;;;;;;;3.80;1.05;;;19.30;99.90;;;;;;5111933;28;20082;-75
2023/09/01 08:53:18;;;;;;;6.38;1.23;;;19.20;99.90;;;;;;5112808;28;20059;-80
2023/09/01 08:56:04;;;;;;;5.47;1.13;;;19.20;99.90;;;;;;5112409;28;20211;-72
2023/09/01 08:58:50;;;;;;;4.45;1.17;;;19.20;99.90;;;;;;5112088;28;20101;-77
2023/09/01 09:01:39;;;;;;;3.63;1.30;;;19.30;99.90;;;;;;5111089;28;20134;-78
2023/09/01 09:04:26;;;;;;;4.38;1.52;;;19.30;99.90;;;;;;5112073;28;20100;-83
2023/09/01 09:07:20;;;;;;;8.23;1.40;;;19.30;99.90;;;;;;5112399;28;20051;-77
2023/09/01 09:10:07;;;;;;;6.32;1.45;;;19.30;99.90;;;;;;5110609;28;20108;-76
2023/09/01 09:12:53;;;;;;;6.97;1.90;;;19.30;99.90;;;;;;5112909;28;20052;-81
2023/09/01 09:15:39;;;;;;;6.45;2.83;;;19.30;99.90;;;;;;5110842;28;20056;-78
2023/09/01 09:18:29;;;;;;;4.32;1.85;;;19.30;99.90;;;;;;5112324;28;20123;-72
2023/09/01 09:21:29;;;;;;;5.72;2.10;;;19.40;99.90;;;;;;5111111;28;20056;-82
2023/09/01 09:24:34;;;;;;;3.85;1.90;;;19.50;99.90;;;;;;5111940;28;20602;-81
2023/09/01 09:27:22;;;;;;;5.90;2.72;;;19.70;99.90;;;;;;5111268;28;20146;-78
2023/09/01 09:30:09;;;;;;;5.15;2.15;;;19.90;99.90;;;;;;5110701;28;20044;-83
2023/09/01 09:33:06;;;;;;;6.25;2.67;;;19.80;99.90;;;;;;5111038;28;20067;-84
2023/09/01 09:35:52;;;;;;;5.93;2.20;;;19.80;99.90;;;;;;5112608;28;20098;-77
2023/09/01 09:38:43;;;;;;;6.32;2.20;;;19.90;99.90;;;;;;5111162;28;20059;-75
2023/09/01 09:41:44;;;;;;;6.40;2.22;;;20.10;99.90;;;;;;5112741;28;20380;-82
2023/09/01 09:44:35;;;;;;;5.07;2.10;;;20.20;99.90;;;;;;5097295;28;20435;-73
2023/09/01 09:47:21;;;;;;;7.15;2.35;;;20.30;99.90;;;;;;5111537;28;20055;-78
2023/09/01 09:50:08;;;;;;;4.93;2.05;;;20.40;99.90;;;;;;5110891;28;20121;-79
2023/09/01 09:52:59;;;;;;;5.60;1.95;;;20.40;99.90;;;;;;5113265;27;20039;-83
2023/09/01 09:55:48;;;;;;;6.15;2.40;;;20.40;99.90;;;;;;5109909;28;20450;-76
2023/09/01 09:58:40;;;;;;;4.75;2.03;;;20.50;99.90;;;;;;5111552;28;20051;-77
2023/09/01 10:01:29;;;;;;;4.18;1.98;;;20.70;99.90;;;;;;5110293;28;20066;-81
2023/09/01 10:04:17;;;;;;;4.68;2.13;;;21.20;99.90;;;;;;5110975;28;20112;-77
2023/09/01 10:07:03;;;;;;;4.95;1.95;;;21.40;99.90;;;;;;5111397;28;20055;-78
2023/09/01 10:09:49;;;;;;;8.13;3.28;;;21.50;99.90;;;;;;5111052;28;20107;-78
2023/09/01 10:12:36;;;;;;;3.50;1.55;;;21.50;99.90;;;;;;5110741;28;20059;-74
2023/09/01 10:15:25;;;;;;;4.05;2.05;;;21.80;99.90;;;;;;5116761;28;20059;-77
2023/09/01 10:18:11;;;;;;;5.78;2.22;;;22.10;99.20;;;;;;5111791;28;20051;-76
2023/09/01 10:20:57;;;;;;;5.88;2.30;;;22.30;98.70;;;;;;5110211;28;20048;-71
2023/09/01 10:23:44;;;;;;;3.78;1.50;;;22.50;98.30;;;;;;5109842;28;20122;-75
2023/09/01 10:26:30;;;;;;;6.32;1.75;;;22.70;98.10;;;;;;5111056;28;20138;-78
2023/09/01 10:29:34;;;;;;;8.98;1.60;;;22.90;98.00;;;;;;5111179;28;20058;-85
2023/09/01 10:32:20;;;;;;;5.80;1.40;;;22.90;95.10;;;;;;5110300;28;20050;-82
2023/09/01 10:35:07;;;;;;;4.97;1.40;;;22.80;96.40;;;;;;5095651;28;20055;-79
2023/09/01 10:38:15;;;;;;;3.40;1.23;;;23.20;96.20;;;;;;5109727;28;20043;-82
2023/09/01 10:41:02;;;;;;;5.18;1.45;;;23.30;92.50;;;;;;5109747;28;20449;-80
2023/09/01 10:43:51;;;;;;;5.00;1.13;;;23.20;94.70;;;;;;5109810;28;20142;-77
2023/09/01 10:46:38;;;;;;;3.03;1.00;;;23.00;93.60;;;;;;5109999;28;20150;-76
2023/09/01 10:49:56;;;;;;;2.85;1.08;;;23.10;93.90;;;;;;5111432;28;20138;-76
2023/09/01 10:52:42;;;;;;;2.75;1.10;;;23.00;92.80;;;;;;5110861;28;20140;-78
2023/09/01 10:55:33;;;;;;;4.32;1.30;;;23.40;94.70;;;;;;5110683;28;20053;-80
2023/09/01 10:58:19;;;;;;;4.35;1.10;;;23.00;94.00;;;;;;5109246;28;20499;-72
2023/09/01 11:01:24;;;;;;;3.45;1.60;;;23.50;94.50;;;;;;5108804;28;20070;-76
2023/09/01 11:04:13;;;;;;;3.45;0.98;;;23.80;92.80;;;;;;5109423;28;20055;-77
2023/09/01 11:07:01;;;;;;;8.43;1.15;;;23.90;92.40;;;;;;5110464;28;20456;-73
2023/09/01 11:09:48;;;;;;;4.15;1.30;;;23.90;92.50;;;;;;5111422;28;20047;-72
2023/09/01 11:12:34;;;;;;;4.97;1.08;;;24.00;93.00;;;;;;5109592;28;20059;-73
2023/09/01 11:15:21;;;;;;;3.88;1.02;;;24.40;92.40;;;;;;5116379;28;20051;-74
2023/09/01 11:18:24;;;;;;;2.90;0.82;;;24.40;91.70;;;;;;5117818;28;20078;-72
2023/09/01 11:21:10;;;;;;;5.15;1.30;;;24.30;91.30;;;;;;5115135;28;20491;-73
2023/09/01 11:23:58;;;;;;;12.45;1.60;;;24.50;92.30;;;;;;5115295;28;20048;-77
2023/09/01 11:26:45;;;;;;;3.67;1.05;;;25.10;90.80;;;;;;5114936;28;20101;-75
2023/09/01 11:29:31;;;;;;;4.72;1.25;;;25.80;91.10;;;;;;5114767;28;20058;-78
2023/09/01 11:32:25;;;;;;;5.07;0.90;;;26.40;90.60;;;;;;5115336;28;20048;-80
2023/09/01 11:35:26;;;;;;;2.65;0.70;;;26.50;88.20;;;;;;5113315;28;20130;-79
2023/09/01 11:38:19;;;;;;;2.60;1.00;;;26.40;84.40;;;;;;5113486;28;20058;-82
2023/09/01 11:41:16;;;;;;;2.33;0.68;;;26.40;85.20;;;;;;5114292;28;20051;-78
2023/09/01 11:44:02;;;;;;;4.07;1.10;;;26.40;86.20;;;;;;5114047;28;20044;-78
2023/09/01 11:46:48;;;;;;;3.60;1.17;;;26.30;87.00;;;;;;5114019;28;20055;-77
2023/09/01 11:49:34;;;;;;;4.15;1.10;;;26.40;87.10;;;;;;5113392;28;20498;-81
2023/09/01 11:52:20;;;;;;;3.22;1.13;;;26.10;86.80;;;;;;5113286;28;20483;-74
2023/09/01 11:55:06;;;;;;;3.22;0.98;;;26.30;86.50;;;;;;5113494;28;20404;-84
2023/09/01 11:57:56;;;;;;;3.33;1.10;;;27.00;86.50;;;;;;5112398;28;20062;-78
2023/09/01 12:00:42;;;;;;;2.38;1.08;;;27.40;83.40;;;;;;5112220;28;20082;-75
2023/09/01 12:03:28;;;;;;;7.45;1.33;;;27.70;83.60;;;;;;5113403;28;20411;-75
2023/09/01 12:06:22;;;;;;;4.25;1.30;;;27.90;80.50;;;;;;5111873;28;20570;-76
2023/09/01 12:09:13;;;;;;;3.15;0.98;;;28.20;80.10;;;;;;5113069;28;20086;-76
2023/09/01 12:12:00;;;;;;;8.55;1.38;;;28.50;78.10;;;;;;5114705;28;20057;-78
2023/09/01 12:14:46;;;;;;;5.05;1.10;;;29.10;79.30;;;;;;5113559;28;20094;-78
2023/09/01 12:17:34;;;;;;;4.63;1.00;;;28.20;78.30;;;;;;5113609;28;20059;-73
2023/09/01 12:20:21;;;;;;;4.30;0.98;;;27.90;80.00;;;;;;5113255;28;20146;-75
2023/09/01 12:23:07;;;;;;;4.82;1.30;;;28.50;78.50;;;;;;5112166;28;20517;-79
2023/09/01 12:25:55;;;;;;;5.40;1.42;;;28.60;77.00;;;;;;5113135;28;20048;-78
2023/09/01 12:28:42;;;;;;;3.83;1.15;;;29.40;77.20;;;;;;5114097;28;20047;-72
2023/09/01 12:31:28;;;;;;;6.18;1.33;;;29.50;77.70;;;;;;5114610;28;20066;-79
2023/09/01 12:34:14;;;;;;;6.07;1.45;;;29.80;75.90;;;;;;5114510;28;20055;-73
2023/09/01 12:37:00;;;;;;;4.72;1.15;;;29.90;75.60;;;;;;5112908;28;20048;-73
2023/09/01 12:39:46;;;;;;;5.95;1.50;;;30.50;77.10;;;;;;5114429;28;20081;-76
2023/09/01 12:42:33;;;;;;;3.70;1.20;;;30.90;77.40;;;;;;5113854;28;20048;-74
2023/09/01 12:45:19;;;;;;;5.63;2.00;;;31.40;77.00;;;;;;5114629;28;20047;-79
2023/09/01 12:48:05;;;;;;;4.22;1.70;;;31.10;74.20;;;;;;5113051;28;20051;-73
2023/09/01 12:50:51;;;;;;;8.88;2.00;;;31.10;74.00;;;;;;5112431;28;20059;-83
2023/09/01 12:53:37;;;;;;;9.30;1.60;;;30.90;74.30;;;;;;5112581;28;20047;-74
2023/09/01 12:56:23;;;;;;;4.03;1.20;;;30.50;74.00;;;;;;5112136;28;20074;-79
2023/09/01 12:59:10;;;;;;;5.47;1.50;;;30.90;74.20;;;;;;5110953;28;20056;-73
2023/09/01 13:01:56;;;;;;;4.80;1.30;;;31.20;73.00;;;;;;5111819;28;20051;-81
2023/09/01 13:04:43;;;;;;;4.82;1.40;;;31.80;72.60;;;;;;5112189;28;20569;-78
2023/09/01 13:07:29;;;;;;;2.50;0.80;;;32.50;72.90;;;;;;5111554;28;20101;-79
2023/09/01 13:10:17;;;;;;;4.25;1.00;;;33.30;71.40;;;;;;5111467;28;20056;-77
2023/09/01 13:13:03;;;;;;;2.50;1.02;;;34.10;70.10;;;;;;5112492;28;20043;-72
2023/09/01 13:15:49;;;;;;;4.25;1.73;;;34.10;67.90;;;;;;5112360;28;20504;-80
2023/09/01 13:18:36;;;;;;;3.33;0.90;;;34.10;66.80;;;;;;5111509;28;20564;-76
2023/09/01 13:21:22;;;;;;;4.18;0.75;;;33.50;66.30;;;;;;5111613;28;20142;-76
2023/09/01 13:24:08;;;;;;;4.63;1.30;;;33.00;66.90;;;;;;5112247;28;20461;-81
2023/09/01 13:26:54;;;;;;;3.30;0.88;;;32.70;66.80;;;;;;5112717;27;20126;-85
2023/09/01 13:29:40;;;;;;;5.72;1.52;;;32.80;68.20;;;;;;5113301;28;20047;-85
2023/09/01 13:32:27;;;;;;;2.97;1.00;;;33.50;65.60;;;;;;5115748;28;20048;-85
2023/09/01 13:35:13;;;;;;;3.85;1.20;;;33.30;65.30;;;;;;5112061;28;20471;-82
2023/09/01 13:37:59;;;;;;;2.72;1.20;;;33.70;64.70;;;;;;5110961;28;20244;-84
2023/09/01 13:40:53;;;;;;;3.88;1.38;;;33.20;64.40;;;;;;5110953;28;20044;-80
2023/09/01 13:43:39;;;;;;;3.70;1.25;;;32.40;65.50;;;;;;5110869;28;20048;-85
2023/09/01 13:46:27;;;;;;;5.18;1.85;;;32.30;65.80;;;;;;5110754;28;20176;-80
2023/09/01 13:49:14;;;;;;;4.05;1.63;;;32.90;66.80;;;;;;5112071;28;20058;-75
2023/09/01 13:52:00;;;;;;;5.00;1.48;;;33.40;64.90;;;;;;5112078;28;20060;-75
2023/09/01 13:54:51;;;;;;;4.53;1.52;;;33.90;64.50;;;;;;5111066;28;20058;-85
2023/09/01 13:57:38;;;;;;;6.28;2.03;;;34.10;63.90;;;;;;5110848;28;20058;-85
2023/09/01 14:00:24;;;;;;;4.22;1.40;;;34.40;62.90;;;;;;5111690;28;20062;-82
2023/09/01 14:03:10;;;;;;;3.75;1.50;;;34.60;62.60;;;;;;5109275;28;20051;-81
2023/09/01 14:06:00;;;;;;;4.35;1.40;;;34.70;60.90;;;;;;5113013;28;20548;-74
2023/09/01 14:08:47;;;;;;;5.50;1.35;;;34.20;61.30;;;;;;5113709;28;20048;-79
2023/09/01 14:11:33;;;;;;;4.28;1.33;;;34.40;62.10;;;;;;5111571;28;20063;-81
2023/09/01 14:14:20;;;;;;;3.63;1.58;;;34.30;61.20;;;;;;5111218;28;20090;-75
2023/09/01 14:17:06;;;;;;;5.55;1.20;;;34.70;61.20;;;;;;5111266;28;20047;-75
2023/09/01 14:19:52;;;;;;;5.72;1.77;;;35.40;60.90;;;;;;5110684;28;20579;-86
2023/09/01 14:22:38;;;;;;;3.22;1.10;;;35.40;59.10;;;;;;5109446;28;20467;-80
2023/09/01 14:25:24;;;;;;;4.20;1.20;;;35.10;59.30;;;;;;5110041;28;20054;-84
2023/09/01 14:28:10;;;;;;;4.15;1.23;;;35.40;59.70;;;;;;5110743;28;20047;-72
2023/09/01 14:30:56;;;;;;;4.97;1.73;;;35.90;58.70;;;;;;5111914;28;20088;-84